Pagrindinis puslapis
METAR-TAF:

METAR-TAF

Oro uostai :

Lagosas, Nigerija

platuma: 06-35N, ilguma: 003-20E, Aukštis: 40 m

Dabartinis oras

Ataskaita buvo paskelbta 1 valandą ir 24 minutes, ne 22:00 UTC
Vėjas 7 kt iš Pietų/Pietvakarių
Temperatūra 29°C
Drėgmė 89%
Slėgis 1010 hPa
Matomumas: 8000 m

METAR: DNMM 212200Z 21007KT 8000 NSC 29/27 Q1010 NOSIG

Laikas: 00:24 (23:24 UTC)

Prognozė

Ataskaita buvo paskelbta 6 valandos ir 24 minutes, ne 17:00 UTC
Prognozė galioja nuo 21 metu 18 UTC su 22 metu 24 UTC
Vėjas 2 kt nuo kintamojo kryptimis
Matomumas: 7000 m
Laikinai
nuo 22 metu 06 UTC su 22 metu 10 UTC
Matomumas: 5000 m
migla
Tapsmas
nuo 22 metu 10 UTC su 22 metu 12 UTC
Vėjas 10 kt iš Pietų/Pietvakarių
Su prošvaistėmis ne aukštis 1400 ft

TAF: DNMM 211700Z 2118/2224 VRB02KT 7000 NSC TEMPO 2206/2210 5000 HZ BECMG 2210/2212 20010KT BKN014

Orai ataskaitas ir orų prognozės (METAR, TAF).

turimą stotys yra geltonos ir raudonos taškus žemėlapyje.

Perkelti pele per norėdami pamatyti stoties vardą.

Tada spustelėkite, norėdami matyti oro stebėjimo ir prognozės.

Norėdami pakeisti žemėlapį: spustelėkite ant žalios mygtukų su juodo kryžiaus žemyn,; žalią mygtuką su brūkšneliu, jei norite nutolinti; arba žalių rodyklių gretimoms žemėlapius.


METAR-TAF: